createdAt,value
2022-10-11T00:01:29.406Z,10.10
2022-10-11T00:03:56.496Z,10.00
2022-10-11T00:06:23.353Z,10.00
2022-10-11T00:08:50.481Z,10.00
2022-10-11T00:11:18.859Z,10.00
2022-10-11T00:13:45.913Z,9.90
2022-10-11T00:16:14.054Z,9.90
2022-10-11T00:18:41.764Z,9.90
2022-10-11T00:21:12.905Z,9.80
2022-10-11T00:23:40.691Z,9.80
2022-10-11T00:26:10.811Z,9.80
2022-10-11T00:28:39.755Z,9.80
2022-10-11T00:31:09.166Z,9.80
2022-10-11T00:33:36.274Z,9.80
2022-10-11T00:36:03.942Z,9.70
2022-10-11T00:38:32.088Z,9.70
2022-10-11T00:41:00.188Z,9.70
2022-10-11T00:43:29.912Z,9.70
2022-10-11T00:46:26.540Z,9.70
2022-10-11T00:49:02.915Z,9.70
2022-10-11T00:51:43.458Z,9.70
2022-10-11T00:54:16.753Z,9.70
2022-10-11T00:56:50.257Z,9.70
2022-10-11T00:59:23.680Z,9.70
2022-10-11T01:01:52.851Z,9.70
2022-10-11T01:04:19.897Z,9.80
2022-10-11T01:06:48.908Z,9.70
2022-10-11T01:09:18.226Z,9.70
2022-10-11T01:11:47.832Z,9.70
2022-10-11T01:14:54.171Z,9.70
2022-10-11T01:17:35.664Z,9.70
2022-10-11T01:20:36.491Z,9.70
2022-10-11T01:24:04.658Z,9.70
2022-10-11T01:27:17.114Z,9.70
2022-10-11T01:29:57.266Z,9.70
2022-10-11T01:32:35.271Z,9.70
2022-10-11T01:35:10.840Z,9.70
2022-10-11T01:37:44.520Z,9.70
2022-10-11T01:40:21.014Z,9.60
2022-10-11T01:42:49.372Z,9.60
2022-10-11T01:45:19.622Z,9.60
2022-10-11T01:47:48.041Z,9.60
2022-10-11T01:50:38.800Z,9.50
2022-10-11T01:53:25.709Z,9.50
2022-10-11T01:56:00.578Z,9.50
2022-10-11T01:58:43.034Z,9.50
2022-10-11T02:01:26.396Z,9.50
2022-10-11T02:04:05.374Z,9.40
2022-10-11T02:06:45.532Z,9.40
2022-10-11T02:09:22.197Z,9.40
2022-10-11T02:11:49.669Z,9.40
2022-10-11T02:14:20.809Z,9.30
2022-10-11T02:16:55.753Z,9.30
2022-10-11T02:19:32.734Z,9.30
2022-10-11T02:22:05.678Z,9.30
2022-10-11T02:24:38.594Z,9.30
2022-10-11T02:27:07.672Z,9.40
2022-10-11T02:29:39.557Z,9.40
2022-10-11T02:32:08.754Z,9.40
2022-10-11T02:34:43.253Z,9.40
2022-10-11T02:37:19.313Z,9.40
2022-10-11T02:39:52.435Z,9.40
2022-10-11T02:42:25.800Z,9.50
2022-10-11T02:45:00.673Z,9.40
2022-10-11T02:47:30.516Z,9.40
2022-10-11T02:50:00.508Z,9.40
2022-10-11T02:52:28.086Z,9.40
2022-10-11T02:54:55.088Z,9.40
2022-10-11T02:57:22.069Z,9.40
2022-10-11T02:59:49.196Z,9.40
2022-10-11T03:02:15.973Z,9.30
2022-10-11T03:04:43.448Z,9.30
2022-10-11T03:07:11.655Z,9.30
2022-10-11T03:09:38.569Z,9.30
2022-10-11T03:12:05.828Z,9.20
2022-10-11T03:14:33.517Z,9.20
2022-10-11T03:17:17.288Z,9.20
2022-10-11T03:19:47.571Z,9.20
2022-10-11T03:22:16.356Z,9.20
2022-10-11T03:24:43.512Z,9.20
2022-10-11T03:27:11.139Z,9.20
2022-10-11T03:29:38.245Z,9.20
2022-10-11T03:32:05.701Z,9.20
2022-10-11T03:34:32.957Z,9.20
2022-10-11T03:36:59.794Z,9.20
2022-10-11T03:39:28.176Z,9.20
2022-10-11T03:41:55.036Z,9.30
2022-10-11T03:44:21.896Z,9.30
2022-10-11T03:46:49.031Z,9.30
2022-10-11T03:49:15.894Z,9.30
2022-10-11T03:51:42.839Z,9.40
2022-10-11T03:54:09.675Z,9.40
2022-10-11T03:56:38.287Z,9.40
2022-10-11T03:59:05.079Z,9.40
2022-10-11T04:01:32.358Z,9.40
2022-10-11T04:03:59.244Z,9.40
2022-10-11T04:06:26.234Z,9.50
2022-10-11T04:08:53.353Z,9.50
2022-10-11T04:11:20.585Z,9.50
2022-10-11T04:13:49.095Z,9.50
2022-10-11T04:16:16.061Z,9.50
2022-10-11T04:18:42.945Z,9.50
2022-10-11T04:21:10.401Z,9.50
2022-10-11T04:23:37.291Z,9.50
2022-10-11T04:26:07.445Z,9.50
2022-10-11T04:28:35.884Z,9.50
2022-10-11T04:31:04.492Z,9.50
2022-10-11T04:33:31.564Z,9.50
2022-10-11T04:35:58.596Z,9.40
2022-10-11T04:38:25.818Z,9.40
2022-10-11T04:40:52.724Z,9.40
2022-10-11T04:43:19.862Z,9.40
2022-10-11T04:45:46.968Z,9.30
2022-10-11T04:48:16.733Z,9.30
2022-10-11T04:50:45.113Z,9.20
2022-10-11T04:53:16.425Z,9.20
2022-10-11T04:55:43.421Z,9.20
2022-10-11T04:58:10.288Z,9.10
2022-10-11T05:00:37.343Z,9.10
2022-10-11T05:03:04.800Z,9.00
2022-10-11T05:05:32.992Z,9.00
2022-10-11T05:08:01.045Z,8.90
2022-10-11T05:10:27.945Z,8.90
2022-10-11T05:12:54.991Z,8.90
2022-10-11T05:15:25.286Z,8.80
2022-10-11T05:17:52.301Z,8.80
2022-10-11T05:20:19.166Z,8.80
2022-10-11T05:22:47.873Z,8.80
2022-10-11T05:25:15.018Z,8.70
2022-10-11T05:27:42.007Z,8.70
2022-10-11T05:30:10.262Z,8.70
2022-10-11T05:32:37.097Z,8.70
2022-10-11T05:35:04.902Z,8.70
2022-10-11T05:37:31.830Z,8.70
2022-10-11T05:40:00.100Z,8.60
2022-10-11T05:42:27.257Z,8.60
2022-10-11T05:44:54.114Z,8.70
2022-10-11T05:47:21.058Z,8.60
2022-10-11T05:49:47.911Z,8.60
2022-10-11T05:52:14.892Z,8.70
2022-10-11T05:54:42.023Z,8.70
2022-10-11T05:57:10.412Z,8.70
2022-10-11T05:59:37.892Z,8.70
2022-10-11T06:02:05.633Z,8.70
2022-10-11T06:04:36.165Z,8.70
2022-10-11T06:07:03.692Z,8.70
2022-10-11T06:09:31.292Z,8.70
2022-10-11T06:12:01.791Z,8.80
2022-10-11T06:14:29.947Z,8.80
2022-10-11T06:16:56.799Z,8.80
2022-10-11T06:19:24.396Z,8.80
2022-10-11T06:21:51.776Z,8.80
2022-10-11T06:24:18.808Z,8.80
2022-10-11T06:26:45.640Z,8.90
2022-10-11T06:29:12.608Z,8.90
2022-10-11T06:31:42.072Z,8.90
2022-10-11T06:34:09.069Z,9.00
2022-10-11T06:36:36.239Z,9.00
2022-10-11T06:39:03.491Z,9.10
2022-10-11T06:41:30.708Z,9.10
2022-10-11T06:43:58.006Z,9.10
2022-10-11T06:46:27.632Z,9.20
2022-10-11T06:48:55.912Z,9.30
2022-10-11T06:51:23.870Z,9.30
2022-10-11T06:53:51.845Z,9.40
2022-10-11T06:56:19.232Z,9.40
2022-10-11T06:58:46.567Z,9.50
2022-10-11T07:01:15.933Z,9.50
2022-10-11T07:03:42.725Z,9.60
2022-10-11T07:06:17.654Z,9.60
2022-10-11T07:08:44.681Z,9.70
2022-10-11T07:11:17.953Z,9.80
2022-10-11T07:13:50.865Z,9.90
2022-10-11T07:16:18.858Z,10.10
2022-10-11T07:18:46.326Z,10.20
2022-10-11T07:21:16.552Z,10.30
2022-10-11T07:23:44.455Z,10.50
2022-10-11T07:26:12.309Z,10.60
2022-10-11T07:28:41.318Z,10.80
2022-10-11T07:31:11.965Z,10.90
2022-10-11T07:33:39.045Z,11.10
2022-10-11T07:36:07.844Z,11.30
2022-10-11T07:38:40.369Z,11.50
2022-10-11T07:41:07.740Z,11.70
2022-10-11T07:43:36.157Z,11.90
2022-10-11T07:46:04.826Z,12.00
2022-10-11T07:48:33.529Z,12.20
2022-10-11T07:51:06.356Z,12.50
2022-10-11T07:53:40.382Z,12.70
2022-10-11T07:56:08.894Z,12.90
2022-10-11T07:58:36.529Z,13.00
2022-10-11T08:01:04.478Z,13.10
2022-10-11T08:03:31.606Z,13.30
2022-10-11T08:06:00.998Z,13.60
2022-10-11T08:08:29.347Z,14.00
2022-10-11T08:10:59.287Z,14.30
2022-10-11T08:13:27.893Z,14.60
2022-10-11T08:15:55.490Z,15.00
2022-10-11T08:18:22.762Z,15.40
2022-10-11T08:20:50.015Z,15.70
2022-10-11T08:23:17.940Z,15.90
2022-10-11T08:25:47.501Z,16.10
2022-10-11T08:28:16.062Z,16.40
2022-10-11T08:30:48.692Z,16.60
2022-10-11T08:33:16.547Z,16.90
2022-10-11T08:35:43.648Z,17.30
2022-10-11T08:38:10.763Z,17.50
2022-10-11T08:40:38.063Z,17.60
2022-10-11T08:43:11.965Z,17.60
2022-10-11T08:45:48.877Z,17.70
2022-10-11T08:48:21.297Z,17.90
2022-10-11T08:50:53.990Z,18.20
2022-10-11T08:53:36.352Z,18.60
2022-10-11T08:56:04.473Z,18.90
2022-10-11T08:58:43.078Z,19.00
2022-10-11T09:01:18.449Z,19.20
2022-10-11T09:03:47.994Z,19.40
2022-10-11T09:06:38.438Z,19.80
2022-10-11T09:09:29.013Z,20.30
2022-10-11T09:12:16.561Z,20.70
2022-10-11T09:15:15.844Z,20.90
2022-10-11T09:18:17.485Z,21.20
2022-10-11T09:21:06.892Z,21.40
2022-10-11T09:23:52.636Z,21.50
2022-10-11T09:26:26.382Z,21.60
2022-10-11T09:29:06.076Z,21.70
2022-10-11T09:31:33.453Z,22.00
2022-10-11T09:34:12.400Z,22.00
2022-10-11T09:39:50.921Z,22.00
2022-10-11T09:42:18.096Z,22.20
2022-10-11T09:44:48.880Z,22.50
2022-10-11T09:47:19.992Z,22.70
2022-10-11T09:49:56.563Z,22.30
2022-10-11T09:52:24.913Z,21.60
2022-10-11T09:54:55.664Z,21.00
2022-10-11T09:57:27.320Z,20.30
2022-10-11T10:00:07.270Z,19.70
2022-10-11T10:02:43.262Z,19.20
2022-10-11T10:05:20.429Z,18.80
2022-10-11T10:08:21.439Z,18.30
2022-10-11T10:10:59.779Z,17.80
2022-10-11T10:13:43.997Z,17.50
2022-10-11T10:16:24.867Z,17.20
2022-10-11T10:18:55.491Z,17.30
2022-10-11T10:21:34.101Z,17.60
2022-10-11T10:24:06.398Z,17.60
2022-10-11T10:26:34.056Z,18.60
2022-10-11T10:29:15.465Z,18.50
2022-10-11T10:34:55.304Z,19.40
2022-10-11T10:37:45.671Z,20.20
2022-10-11T10:40:21.529Z,20.50
2022-10-11T10:42:49.787Z,20.00
2022-10-11T10:45:31.907Z,19.60
2022-10-11T10:48:15.765Z,20.50
2022-10-11T10:50:54.748Z,20.90
2022-10-11T10:53:33.376Z,21.30
2022-10-11T10:56:09.056Z,21.70
2022-10-11T10:59:20.508Z,22.00
2022-10-11T11:02:15.900Z,22.10
2022-10-11T11:05:04.306Z,22.50
2022-10-11T11:07:37.888Z,22.70
2022-10-11T11:10:15.628Z,22.80
2022-10-11T11:12:52.785Z,23.10
2022-10-11T11:15:32.651Z,23.30
2022-10-11T11:18:22.868Z,23.50
2022-10-11T11:21:09.169Z,23.10
2022-10-11T11:23:47.750Z,22.70
2022-10-11T11:26:25.134Z,22.30
2022-10-11T11:29:13.375Z,22.00
2022-10-11T11:32:03.651Z,21.80
2022-10-11T11:34:38.185Z,21.70
2022-10-11T11:37:15.031Z,21.60
2022-10-11T11:39:49.384Z,22.50
2022-10-11T11:42:24.746Z,22.20
2022-10-11T11:44:53.528Z,21.90
2022-10-11T11:47:27.257Z,21.50
2022-10-11T11:49:59.902Z,21.10
2022-10-11T11:52:35.140Z,20.50
2022-10-11T11:55:10.406Z,20.00
2022-10-11T11:57:57.720Z,19.50
2022-10-11T12:00:34.098Z,19.20
2022-10-11T12:03:09.427Z,18.80
2022-10-11T12:05:36.890Z,18.50
2022-10-11T12:08:07.538Z,18.10
2022-10-11T12:10:38.849Z,17.80
2022-10-11T12:13:22.258Z,17.50
2022-10-11T12:16:06.964Z,17.30
2022-10-11T12:18:47.189Z,17.10
2022-10-11T12:21:24.680Z,16.90
2022-10-11T12:23:54.534Z,16.70
2022-10-11T12:26:43.970Z,16.50
2022-10-11T12:29:56.677Z,16.40
2022-10-11T12:32:49.396Z,16.20
2022-10-11T12:35:56.974Z,15.90
2022-10-11T12:38:31.086Z,15.70
2022-10-11T12:41:48.595Z,15.60
2022-10-11T12:44:23.434Z,15.50
2022-10-11T12:47:31.684Z,15.50
2022-10-11T12:50:15.153Z,15.70
2022-10-11T12:52:58.513Z,15.90
2022-10-11T12:55:50.700Z,16.20
2022-10-11T12:58:32.721Z,16.40
2022-10-11T13:01:20.644Z,16.90
2022-10-11T13:04:02.999Z,17.30
2022-10-11T13:06:35.202Z,17.50
2022-10-11T13:09:14.587Z,17.90
2022-10-11T13:11:52.350Z,17.70
2022-10-11T13:14:24.295Z,17.30
2022-10-11T13:16:58.744Z,17.00
2022-10-11T13:19:26.830Z,16.80
2022-10-11T13:21:57.424Z,16.80
2022-10-11T13:24:27.939Z,16.80
2022-10-11T13:26:56.813Z,16.70
2022-10-11T13:29:32.515Z,16.70
2022-10-11T13:32:00.810Z,16.60
2022-10-11T13:34:31.747Z,16.60
2022-10-11T13:37:02.167Z,16.50
2022-10-11T13:39:34.358Z,16.40
2022-10-11T13:42:05.649Z,16.40
2022-10-11T13:44:37.677Z,16.30
2022-10-11T13:47:05.317Z,16.20
2022-10-11T13:49:35.210Z,16.20
2022-10-11T13:52:05.576Z,16.10
2022-10-11T13:55:07.675Z,16.00
2022-10-11T13:57:39.023Z,16.00
2022-10-11T14:00:25.842Z,16.00
2022-10-11T14:02:59.164Z,15.90
2022-10-11T14:05:32.630Z,15.80
2022-10-11T14:08:02.304Z,15.60
2022-10-11T14:10:30.164Z,15.50
2022-10-11T14:13:06.010Z,15.40
2022-10-11T14:15:36.808Z,15.30
2022-10-11T14:18:49.567Z,15.30
2022-10-11T14:21:47.268Z,15.20
2022-10-11T14:24:15.082Z,15.10
2022-10-11T14:26:45.744Z,15.10
2022-10-11T14:29:22.082Z,15.10
2022-10-11T14:31:49.937Z,15.10
2022-10-11T14:34:22.970Z,15.10
2022-10-11T14:36:50.869Z,15.10
2022-10-11T14:39:20.462Z,15.20
2022-10-11T14:41:48.093Z,15.20
2022-10-11T14:44:15.745Z,15.40
2022-10-11T14:46:44.913Z,15.40
2022-10-11T14:49:14.714Z,15.40
2022-10-11T14:51:45.766Z,15.40
2022-10-11T14:54:14.258Z,15.40
2022-10-11T14:56:41.830Z,15.40
2022-10-11T14:59:12.567Z,15.40
2022-10-11T15:01:39.723Z,15.40
2022-10-11T15:04:06.744Z,15.40
2022-10-11T15:06:38.130Z,15.40
2022-10-11T15:09:08.202Z,15.30
2022-10-11T15:11:37.252Z,15.30
2022-10-11T15:14:05.190Z,15.10
2022-10-11T15:16:32.898Z,15.10
2022-10-11T15:19:00.389Z,15.00
2022-10-11T15:21:29.798Z,14.90
2022-10-11T15:23:57.054Z,14.90
2022-10-11T15:26:28.644Z,14.80
2022-10-11T15:28:57.441Z,14.80
2022-10-11T15:31:25.088Z,14.70
2022-10-11T15:33:52.226Z,14.70
2022-10-11T15:36:22.156Z,14.70
2022-10-11T15:38:49.974Z,14.70
2022-10-11T15:41:19.962Z,14.60
2022-10-11T15:43:49.609Z,14.60
2022-10-11T15:46:20.091Z,14.60
2022-10-11T15:48:47.951Z,14.60
2022-10-11T15:51:15.385Z,14.50
2022-10-11T15:53:42.309Z,14.50
2022-10-11T15:56:14.065Z,14.50
2022-10-11T15:58:42.788Z,14.50
2022-10-11T16:01:15.651Z,14.50
2022-10-11T16:03:43.582Z,14.50
2022-10-11T16:06:12.094Z,14.40
2022-10-11T16:08:39.745Z,14.40
2022-10-11T16:11:08.596Z,14.40
2022-10-11T16:13:36.433Z,14.30
2022-10-11T16:16:06.460Z,14.30
2022-10-11T16:18:36.236Z,14.30
2022-10-11T16:21:08.757Z,14.30
2022-10-11T16:23:36.947Z,14.30
2022-10-11T16:26:06.811Z,14.20
2022-10-11T16:28:34.468Z,14.20
2022-10-11T16:31:07.800Z,14.20
2022-10-11T16:33:36.320Z,14.20
2022-10-11T16:36:07.053Z,14.20
2022-10-11T16:38:34.180Z,14.10
2022-10-11T16:41:06.016Z,14.10
2022-10-11T16:43:33.122Z,14.10
2022-10-11T16:46:03.880Z,14.10
2022-10-11T16:48:31.141Z,14.10
2022-10-11T16:51:07.841Z,14.10
2022-10-11T16:53:35.577Z,14.00
2022-10-11T16:56:05.626Z,14.00
2022-10-11T16:58:36.270Z,14.00
2022-10-11T17:01:08.156Z,13.90
2022-10-11T17:03:35.351Z,13.90
2022-10-11T17:06:02.202Z,13.90
2022-10-11T17:08:30.825Z,13.90
2022-10-11T17:10:58.159Z,13.80
2022-10-11T17:13:25.135Z,13.80
2022-10-11T17:15:52.663Z,13.80
2022-10-11T17:18:19.549Z,13.80
2022-10-11T17:20:46.507Z,13.70
2022-10-11T17:23:13.350Z,13.70
2022-10-11T17:25:47.084Z,13.70
2022-10-11T17:28:14.336Z,13.70
2022-10-11T17:30:41.163Z,13.60
2022-10-11T17:33:09.459Z,13.60
2022-10-11T17:35:36.513Z,13.50
2022-10-11T17:38:06.367Z,13.40
2022-10-11T17:40:34.217Z,13.40
2022-10-11T17:43:02.693Z,13.30
2022-10-11T17:45:29.850Z,13.30
2022-10-11T17:47:56.700Z,13.20
2022-10-11T17:50:23.849Z,13.10
2022-10-11T17:52:51.134Z,13.10
2022-10-11T17:55:19.177Z,13.00
2022-10-11T17:57:46.143Z,12.90
2022-10-11T18:00:16.548Z,12.90
2022-10-11T18:02:43.680Z,12.80
2022-10-11T18:05:10.885Z,12.80
2022-10-11T18:07:38.546Z,12.70
2022-10-11T18:10:06.721Z,12.70
2022-10-11T18:12:33.878Z,12.60
2022-10-11T18:15:00.720Z,12.60
2022-10-11T18:17:32.532Z,12.50
2022-10-11T18:19:59.541Z,12.50
2022-10-11T18:22:26.916Z,12.50
2022-10-11T18:24:54.078Z,12.50
2022-10-11T18:27:21.109Z,12.50
2022-10-11T18:29:48.077Z,12.50
2022-10-11T18:32:14.915Z,12.50
2022-10-11T18:34:43.404Z,12.50
2022-10-11T18:37:10.651Z,12.50
2022-10-11T18:39:37.605Z,12.40
2022-10-11T18:42:05.197Z,12.40
2022-10-11T18:44:32.646Z,12.40
2022-10-11T18:46:59.625Z,12.30
2022-10-11T18:49:26.756Z,12.30
2022-10-11T18:51:55.129Z,12.30
2022-10-11T18:54:22.192Z,12.30
2022-10-11T18:56:49.871Z,12.20
2022-10-11T18:59:17.435Z,12.20
2022-10-11T19:01:45.248Z,12.20
2022-10-11T19:04:14.593Z,12.10
2022-10-11T19:06:45.251Z,12.00
2022-10-11T19:09:16.159Z,12.00
2022-10-11T19:11:43.905Z,12.00
2022-10-11T19:14:13.864Z,11.90
2022-10-11T19:16:43.426Z,11.90
2022-10-11T19:19:12.495Z,11.90
2022-10-11T19:21:40.162Z,11.80
2022-10-11T19:24:08.605Z,11.80
2022-10-11T19:26:40.702Z,11.70
2022-10-11T19:29:10.408Z,11.70
2022-10-11T19:31:42.912Z,11.70
2022-10-11T19:34:09.925Z,11.60
2022-10-11T19:36:37.936Z,11.60
2022-10-11T19:39:06.276Z,11.60
2022-10-11T19:41:34.080Z,11.50
2022-10-11T19:44:02.255Z,11.50
2022-10-11T19:46:50.408Z,11.50
2022-10-11T19:49:17.783Z,11.40
2022-10-11T19:51:45.116Z,11.40
2022-10-11T19:54:14.410Z,11.40
2022-10-11T19:56:42.488Z,11.30
2022-10-11T19:59:12.391Z,11.30
2022-10-11T20:01:40.310Z,11.30
2022-10-11T20:04:22.666Z,11.20
2022-10-11T20:07:00.544Z,11.20
2022-10-11T20:09:30.047Z,11.20
2022-10-11T20:11:58.610Z,11.20
2022-10-11T20:14:26.945Z,11.20
2022-10-11T20:16:54.059Z,11.10
2022-10-11T20:19:23.679Z,11.10
2022-10-11T20:21:53.628Z,11.10
2022-10-11T20:24:21.010Z,11.00
2022-10-11T20:26:47.807Z,11.00
2022-10-11T20:29:15.242Z,10.90
2022-10-11T20:31:43.553Z,10.90
2022-10-11T20:34:12.333Z,10.80
2022-10-11T20:36:39.446Z,10.80
2022-10-11T20:39:06.482Z,10.70
2022-10-11T20:41:35.709Z,10.70
2022-10-11T20:44:04.084Z,10.60
2022-10-11T20:46:34.518Z,10.60
2022-10-11T20:49:06.360Z,10.50
2022-10-11T20:51:36.652Z,10.50
2022-10-11T20:54:04.585Z,10.50
2022-10-11T20:56:32.298Z,10.40
2022-10-11T20:58:59.621Z,10.40
2022-10-11T21:01:29.363Z,10.30
2022-10-11T21:03:58.299Z,10.30
2022-10-11T21:06:26.825Z,10.20
2022-10-11T21:08:55.297Z,10.20
2022-10-11T21:11:25.416Z,10.20
2022-10-11T21:13:54.817Z,10.10
2022-10-11T21:16:21.857Z,10.10
2022-10-11T21:18:51.266Z,10.00
2022-10-11T21:21:18.856Z,10.00
2022-10-11T21:23:49.359Z,10.00
2022-10-11T21:26:16.629Z,9.90
2022-10-11T21:28:46.065Z,9.90
2022-10-11T21:31:16.869Z,9.90
2022-10-11T21:33:45.259Z,9.80
2022-10-11T21:36:14.964Z,9.80
2022-10-11T21:38:42.434Z,9.80
2022-10-11T21:41:14.190Z,9.70
2022-10-11T21:43:41.862Z,9.70
2022-10-11T21:46:10.655Z,9.70
2022-10-11T21:48:37.831Z,9.60
2022-10-11T21:51:05.539Z,9.60
2022-10-11T21:53:33.158Z,9.60
2022-10-11T21:56:01.245Z,9.50
2022-10-11T21:58:32.955Z,9.50
2022-10-11T22:00:59.989Z,9.50
2022-10-11T22:03:28.743Z,9.40
2022-10-11T22:05:56.089Z,9.40
2022-10-11T22:08:25.934Z,9.30
2022-10-11T22:10:55.224Z,9.30
2022-10-11T22:13:23.665Z,9.30
2022-10-11T22:15:52.181Z,9.30
2022-10-11T22:18:19.335Z,9.20
2022-10-11T22:20:46.462Z,9.20
2022-10-11T22:23:13.618Z,9.20
2022-10-11T22:25:41.953Z,9.20
2022-10-11T22:28:09.095Z,9.10
2022-10-11T22:30:36.047Z,9.10
2022-10-11T22:33:04.646Z,9.10
2022-10-11T22:35:37.150Z,9.10
2022-10-11T22:38:05.594Z,9.00
2022-10-11T22:40:32.610Z,9.00
2022-10-11T22:42:59.392Z,9.00
2022-10-11T22:45:26.339Z,9.00
2022-10-11T22:47:53.366Z,9.10
2022-10-11T22:50:21.710Z,9.10
2022-10-11T22:52:48.668Z,9.10
2022-10-11T22:55:20.248Z,9.10
2022-10-11T22:57:47.303Z,9.00
2022-10-11T23:00:15.099Z,9.00
2022-10-11T23:02:42.022Z,9.00
2022-10-11T23:05:09.420Z,9.00
2022-10-11T23:07:41.181Z,8.90
2022-10-11T23:10:09.270Z,8.90
2022-10-11T23:12:36.611Z,8.90
2022-10-11T23:15:05.029Z,8.90
2022-10-11T23:17:31.995Z,8.90
2022-10-11T23:19:59.407Z,8.90
2022-10-11T23:22:26.338Z,8.80
2022-10-11T23:24:54.653Z,8.80
2022-10-11T23:27:21.594Z,8.90
2022-10-11T23:29:48.686Z,8.90
2022-10-11T23:32:15.606Z,8.90
2022-10-11T23:34:42.560Z,8.90
2022-10-11T23:37:09.475Z,8.90
2022-10-11T23:39:36.379Z,8.90
2022-10-11T23:42:04.948Z,8.90
2022-10-11T23:44:32.324Z,8.90
2022-10-11T23:46:59.558Z,8.90
2022-10-11T23:49:26.517Z,8.90
2022-10-11T23:51:53.536Z,8.90
2022-10-11T23:54:20.488Z,8.90
2022-10-11T23:56:47.490Z,8.90
2022-10-11T23:59:15.872Z,8.80
